createdAt,value
2019-01-12T00:03:31.801Z,-0.66
2019-01-12T00:06:19.834Z,-0.64
2019-01-12T00:08:48.613Z,-0.62
2019-01-12T00:11:17.360Z,-0.63
2019-01-12T00:13:46.066Z,-0.62
2019-01-12T00:16:14.725Z,-0.60
2019-01-12T00:18:43.947Z,-0.58
2019-01-12T00:21:12.665Z,-0.56
2019-01-12T00:23:41.342Z,-0.56
2019-01-12T00:26:10.050Z,-0.53
2019-01-12T00:28:57.889Z,-0.54
2019-01-12T00:31:45.852Z,-0.53
2019-01-12T00:34:14.515Z,-0.55
2019-01-12T00:37:02.351Z,-0.54
2019-01-12T00:39:50.324Z,-0.48
2019-01-12T00:42:19.067Z,-0.50
2019-01-12T00:44:47.738Z,-0.48
2019-01-12T00:47:35.722Z,-0.47
2019-01-12T00:50:44.175Z,-0.49
2019-01-12T00:53:12.881Z,-0.44
2019-01-12T00:55:41.564Z,-0.42
2019-01-12T00:58:10.274Z,-0.43
2019-01-12T01:03:13.395Z,-0.38
2019-01-12T01:05:42.096Z,-0.26
2019-01-12T01:08:10.908Z,-0.39
2019-01-12T01:10:39.582Z,-0.42
2019-01-12T01:13:08.254Z,-0.32
2019-01-12T01:15:38.682Z,-0.40
2019-01-12T01:18:26.605Z,-0.34
2019-01-12T01:21:14.564Z,-0.35
2019-01-12T01:23:43.246Z,-0.34
2019-01-12T01:28:46.392Z,-0.26
2019-01-12T01:31:34.292Z,-0.31
2019-01-12T01:34:03.134Z,-0.33
2019-01-12T01:36:31.840Z,-0.30
2019-01-12T01:39:00.559Z,-0.31
2019-01-12T01:41:48.411Z,-0.25
2019-01-12T01:44:36.256Z,-0.20
2019-01-12T01:49:39.132Z,-0.22
2019-01-12T01:52:28.561Z,-0.22
2019-01-12T01:54:59.495Z,-0.21
2019-01-12T01:57:48.093Z,-0.18
2019-01-12T02:00:37.523Z,-0.15
2019-01-12T02:03:06.692Z,-0.17
2019-01-12T02:05:35.690Z,-0.16
2019-01-12T02:10:59.270Z,-0.17
2019-01-12T02:13:27.966Z,-0.18
2019-01-12T02:15:57.140Z,-0.14
2019-01-12T02:18:25.856Z,-0.14
2019-01-12T02:21:34.700Z,-0.16
2019-01-12T02:27:11.557Z,-0.11
2019-01-12T02:29:59.677Z,-0.07
2019-01-12T02:32:28.387Z,-0.12
2019-01-12T02:34:57.127Z,-0.07
2019-01-12T02:37:25.844Z,-0.07
2019-01-12T02:39:54.519Z,-0.06
2019-01-12T02:42:23.191Z,-0.07
2019-01-12T02:44:51.898Z,-0.11
2019-01-12T02:47:20.553Z,-0.09
2019-01-12T02:49:49.327Z,-0.03
2019-01-12T02:52:18.119Z,0.01
2019-01-12T02:54:46.841Z,-0.02
2019-01-12T02:57:15.509Z,-0.04
2019-01-12T02:59:44.195Z,0.04
2019-01-12T03:02:12.959Z,-0.01
2019-01-12T03:04:41.632Z,-0.02
2019-01-12T03:07:10.485Z,-0.01
2019-01-12T03:09:39.321Z,0.01
2019-01-12T03:12:08.044Z,0.05
2019-01-12T03:14:55.948Z,0.03
2019-01-12T03:17:43.908Z,0.00
2019-01-12T03:20:52.378Z,-0.02
2019-01-12T03:23:21.081Z,-0.01
2019-01-12T03:25:49.738Z,0.02
2019-01-12T03:28:18.429Z,0.02
2019-01-12T03:30:47.138Z,0.04
2019-01-12T03:33:15.830Z,0.07
2019-01-12T03:35:44.534Z,0.11
2019-01-12T03:38:32.499Z,0.08
2019-01-12T03:44:09.537Z,0.05
2019-01-12T03:46:38.248Z,0.05
2019-01-12T03:49:26.041Z,0.04
2019-01-12T03:51:54.848Z,0.07
2019-01-12T03:54:23.552Z,0.06
2019-01-12T03:57:11.499Z,0.08
2019-01-12T03:59:40.159Z,0.13
2019-01-12T04:02:08.858Z,0.11
2019-01-12T04:04:38.009Z,0.10
2019-01-12T04:07:08.125Z,0.12
2019-01-12T04:09:36.792Z,0.13
2019-01-12T04:12:05.451Z,0.15
2019-01-12T04:14:53.421Z,0.16
2019-01-12T04:17:22.083Z,0.15
2019-01-12T04:19:50.745Z,0.15
2019-01-12T04:22:19.568Z,0.17
2019-01-12T04:25:07.479Z,0.14
2019-01-12T04:27:55.316Z,0.18
2019-01-12T04:30:23.987Z,0.23
2019-01-12T04:32:52.654Z,0.18
2019-01-12T04:35:40.594Z,0.18
2019-01-12T04:38:28.569Z,0.23
2019-01-12T04:40:57.299Z,0.23
2019-01-12T04:43:26.076Z,0.23
2019-01-12T04:45:54.746Z,0.21
2019-01-12T04:48:42.714Z,0.17
2019-01-12T04:51:30.634Z,0.23
2019-01-12T04:53:59.407Z,0.21
2019-01-12T04:56:28.058Z,0.25
2019-01-12T04:59:16.025Z,0.18
2019-01-12T05:01:44.770Z,0.20
2019-01-12T05:04:32.740Z,0.23
2019-01-12T05:07:20.692Z,0.21
2019-01-12T05:10:08.621Z,0.28
2019-01-12T05:12:56.545Z,0.29
2019-01-12T05:15:44.384Z,0.29
2019-01-12T05:18:32.176Z,0.35
2019-01-12T05:21:00.894Z,0.35
2019-01-12T05:23:29.634Z,0.31
2019-01-12T05:25:58.287Z,0.38
2019-01-12T05:28:27.094Z,0.38
2019-01-12T05:30:55.765Z,0.35
2019-01-12T05:33:24.463Z,0.34
2019-01-12T05:35:53.220Z,0.35
2019-01-12T05:38:21.937Z,0.41
2019-01-12T05:40:50.644Z,0.37
2019-01-12T05:43:19.305Z,0.36
2019-01-12T05:45:48.112Z,0.40
2019-01-12T05:48:16.767Z,0.36
2019-01-12T05:50:45.489Z,0.36
2019-01-12T05:53:33.404Z,0.44
2019-01-12T05:58:36.296Z,0.38
2019-01-12T06:01:44.790Z,0.38
2019-01-12T06:04:13.455Z,0.36
2019-01-12T06:07:01.420Z,0.40
2019-01-12T06:09:49.349Z,0.41
2019-01-12T06:12:18.059Z,0.45
2019-01-12T06:14:46.753Z,0.41
2019-01-12T06:17:34.676Z,0.41
2019-01-12T06:20:22.652Z,0.38
2019-01-12T06:23:10.553Z,0.39
2019-01-12T06:25:39.211Z,0.42
2019-01-12T06:28:27.184Z,0.42
2019-01-12T06:31:15.134Z,0.39
2019-01-12T06:36:50.664Z,0.41
2019-01-12T06:39:38.634Z,0.42
2019-01-12T06:42:07.322Z,0.40
2019-01-12T06:44:36.032Z,0.42
2019-01-12T06:47:04.694Z,0.42
2019-01-12T06:49:33.410Z,0.46
2019-01-12T06:52:02.155Z,0.43
2019-01-12T06:54:50.114Z,0.41
2019-01-12T06:57:18.788Z,0.38
2019-01-12T06:59:47.541Z,0.38
2019-01-12T07:02:35.502Z,0.38
2019-01-12T07:07:59.470Z,0.39
2019-01-12T07:10:28.527Z,0.40
2019-01-12T07:12:57.261Z,0.40
2019-01-12T07:15:25.951Z,0.39
2019-01-12T07:17:54.713Z,0.39
2019-01-12T07:20:23.369Z,0.38
2019-01-12T07:23:11.355Z,0.49
2019-01-12T07:25:40.087Z,0.44
2019-01-12T07:28:08.802Z,0.42
2019-01-12T07:30:37.463Z,0.44
2019-01-12T07:33:06.174Z,0.43
2019-01-12T07:35:34.845Z,0.47
2019-01-12T07:38:03.549Z,0.48
2019-01-12T07:40:32.214Z,0.48
2019-01-12T07:48:08.964Z,0.52
2019-01-12T07:50:37.631Z,0.53
2019-01-12T07:53:25.581Z,0.58
2019-01-12T07:56:34.067Z,0.58
2019-01-12T07:59:21.966Z,0.57
2019-01-12T08:01:50.649Z,0.56
2019-01-12T08:04:38.463Z,0.59
2019-01-12T08:07:07.191Z,0.63
2019-01-12T08:09:55.030Z,0.68
2019-01-12T08:12:42.828Z,0.64
2019-01-12T08:15:11.769Z,0.66
2019-01-12T08:17:40.446Z,0.67
2019-01-12T08:20:48.941Z,0.72
2019-01-12T08:23:17.647Z,0.69
2019-01-12T08:25:46.349Z,0.66
2019-01-12T08:28:34.179Z,0.73
2019-01-12T08:31:02.956Z,0.78
2019-01-12T08:33:31.645Z,0.77
2019-01-12T08:36:00.376Z,0.76
2019-01-12T08:38:48.172Z,0.76
2019-01-12T08:41:16.882Z,0.75
2019-01-12T08:43:45.552Z,0.77
2019-01-12T08:46:33.506Z,0.78
2019-01-12T08:49:21.421Z,0.70
2019-01-12T08:52:09.380Z,0.77
2019-01-12T08:54:57.331Z,0.75
2019-01-12T08:57:26.000Z,0.80
2019-01-12T09:00:13.956Z,0.75
2019-01-12T09:05:30.342Z,0.79
2019-01-12T09:10:46.782Z,0.76
2019-01-12T09:13:15.447Z,0.81
2019-01-12T09:15:44.152Z,0.82
2019-01-12T09:18:33.581Z,0.78
2019-01-12T09:21:02.282Z,0.78
2019-01-12T09:23:50.218Z,0.81
2019-01-12T09:26:18.930Z,0.85
2019-01-12T09:28:47.583Z,0.95
2019-01-12T09:31:35.527Z,1.01
2019-01-12T09:34:23.478Z,1.01
2019-01-12T09:42:34.730Z,1.07
2019-01-12T09:47:38.030Z,0.96
2019-01-12T09:50:46.543Z,0.96
2019-01-12T09:53:34.461Z,0.87
2019-01-12T09:58:56.295Z,0.90
2019-01-12T10:04:58.051Z,0.95
2019-01-12T10:07:26.717Z,0.93
2019-01-12T10:09:55.420Z,0.97
2019-01-12T10:12:24.087Z,0.89
2019-01-12T10:15:12.073Z,0.87
2019-01-12T10:18:00.006Z,1.00
2019-01-12T10:20:47.964Z,1.02
2019-01-12T10:23:35.850Z,1.03
2019-01-12T10:26:25.378Z,1.03
2019-01-12T10:29:13.286Z,1.08
2019-01-12T10:32:01.227Z,0.99
2019-01-12T10:34:49.422Z,1.06
2019-01-12T10:37:37.278Z,1.07
2019-01-12T10:40:26.703Z,1.07
2019-01-12T10:43:35.155Z,1.05
2019-01-12T10:48:39.381Z,1.14
2019-01-12T10:56:49.568Z,1.26
2019-01-12T10:59:37.473Z,1.30
2019-01-12T11:02:45.963Z,1.36
2019-01-12T11:05:14.632Z,1.55
2019-01-12T11:07:43.351Z,1.38
2019-01-12T11:10:51.823Z,1.41
2019-01-12T11:13:20.572Z,1.48
2019-01-12T11:15:49.269Z,1.44
2019-01-12T11:18:17.922Z,1.42
2019-01-12T11:21:05.867Z,1.34
2019-01-12T11:26:42.695Z,1.33
2019-01-12T11:29:30.640Z,1.34
2019-01-12T11:32:18.558Z,1.33
2019-01-12T11:37:40.721Z,1.45
2019-01-12T11:40:28.636Z,1.52
2019-01-12T11:43:16.500Z,1.60
2019-01-12T11:46:04.379Z,1.59
2019-01-12T11:48:33.084Z,1.55
2019-01-12T11:51:21.021Z,1.61
2019-01-12T11:54:08.857Z,1.63
2019-01-12T11:56:37.557Z,1.49
2019-01-12T11:59:06.271Z,1.42
2019-01-12T12:01:34.913Z,1.49
2019-01-12T12:04:03.625Z,1.38
2019-01-12T12:06:32.287Z,1.46
2019-01-12T12:09:20.251Z,1.45
2019-01-12T12:12:08.166Z,1.40
2019-01-12T12:14:56.107Z,1.42
2019-01-12T12:17:44.065Z,1.41
2019-01-12T12:20:52.545Z,1.41
2019-01-12T12:23:40.334Z,1.51
2019-01-12T12:26:28.281Z,1.58
2019-01-12T12:29:16.099Z,1.71
2019-01-12T12:32:04.111Z,1.69
2019-01-12T12:34:52.002Z,1.62
2019-01-12T12:37:20.652Z,1.53
2019-01-12T12:39:49.378Z,1.55
2019-01-12T12:42:18.070Z,1.66
2019-01-12T12:44:46.735Z,1.61
2019-01-12T12:47:15.440Z,1.68
2019-01-12T12:49:44.095Z,1.72
2019-01-12T12:52:32.080Z,1.85
2019-01-12T12:55:00.741Z,1.90
2019-01-12T12:57:32.853Z,1.93
2019-01-12T12:59:59.830Z,1.93
2019-01-12T13:02:28.621Z,1.96
2019-01-12T13:04:57.321Z,1.91
2019-01-12T13:07:26.018Z,1.85
2019-01-12T13:10:34.439Z,1.81
2019-01-12T13:13:22.276Z,1.75
2019-01-12T13:16:10.205Z,1.79
2019-01-12T13:18:38.914Z,1.74
2019-01-12T13:21:07.574Z,1.79
2019-01-12T13:26:30.689Z,1.71
2019-01-12T13:29:18.641Z,1.71
2019-01-12T13:32:06.597Z,1.69
2019-01-12T13:37:28.793Z,1.69
2019-01-12T13:40:16.807Z,1.69
2019-01-12T13:42:45.488Z,1.66
2019-01-12T13:45:53.930Z,1.69
2019-01-12T13:48:22.616Z,1.76
2019-01-12T13:51:10.448Z,1.71
2019-01-12T13:53:39.195Z,1.77
2019-01-12T13:56:07.901Z,1.70
2019-01-12T13:58:36.551Z,1.68
2019-01-12T14:01:45.041Z,1.69
2019-01-12T14:04:32.879Z,1.69
2019-01-12T14:07:01.651Z,1.72
2019-01-12T14:09:30.336Z,1.73
2019-01-12T14:11:58.988Z,1.71
2019-01-12T14:17:02.161Z,1.70
2019-01-12T14:22:05.504Z,1.72
2019-01-12T14:24:34.163Z,1.68
2019-01-12T14:27:02.866Z,1.68
2019-01-12T14:29:50.816Z,1.64
2019-01-12T14:32:38.723Z,1.62
2019-01-12T14:35:47.194Z,1.60
2019-01-12T14:38:15.847Z,1.61
2019-01-12T14:40:44.713Z,1.60
2019-01-12T14:43:32.664Z,1.59
2019-01-12T14:46:01.324Z,1.58
2019-01-12T14:48:30.062Z,1.58
2019-01-12T14:50:58.719Z,1.60
2019-01-12T14:53:27.417Z,1.62
2019-01-12T14:55:56.119Z,1.60
2019-01-12T14:58:44.034Z,1.70
2019-01-12T15:01:12.668Z,1.63
2019-01-12T15:04:00.637Z,1.66
2019-01-12T15:06:29.361Z,1.67
2019-01-12T15:08:58.066Z,1.64
2019-01-12T15:11:26.725Z,1.65
2019-01-12T15:13:55.427Z,1.71
2019-01-12T15:16:24.206Z,1.78
2019-01-12T15:18:52.906Z,1.77
2019-01-12T15:21:21.565Z,1.78
2019-01-12T15:23:50.325Z,1.80
2019-01-12T15:26:19.028Z,1.77
2019-01-12T15:28:47.722Z,1.81
2019-01-12T15:31:16.386Z,1.79
2019-01-12T15:33:45.231Z,1.77
2019-01-12T15:36:13.978Z,1.79
2019-01-12T15:38:42.872Z,1.75
2019-01-12T15:41:11.961Z,1.73
2019-01-12T15:43:40.719Z,1.77
2019-01-12T15:46:09.547Z,1.76
2019-01-12T15:48:38.276Z,1.77
2019-01-12T15:51:07.061Z,1.79
2019-01-12T15:53:35.789Z,1.74
2019-01-12T15:56:25.962Z,1.77
2019-01-12T16:01:45.039Z,1.79
2019-01-12T16:04:13.993Z,1.81
2019-01-12T16:09:49.681Z,1.82
2019-01-12T16:12:38.652Z,1.79
2019-01-12T16:15:27.026Z,1.76
2019-01-12T16:17:55.761Z,1.72
2019-01-12T16:20:43.728Z,1.71
2019-01-12T16:23:12.483Z,1.70
2019-01-12T16:25:41.259Z,1.68
2019-01-12T16:28:29.781Z,1.73
2019-01-12T16:31:17.631Z,1.72
2019-01-12T16:34:26.322Z,1.64
2019-01-12T16:40:11.330Z,1.63
2019-01-12T16:42:40.095Z,1.60
2019-01-12T16:45:48.691Z,1.62
2019-01-12T16:48:17.344Z,1.52
2019-01-12T16:50:46.009Z,1.45
2019-01-12T16:53:14.781Z,1.45
2019-01-12T16:55:50.615Z,1.52
2019-01-12T16:58:19.526Z,1.47
2019-01-12T17:00:48.171Z,1.46
2019-01-12T17:03:16.879Z,1.47
2019-01-12T17:06:25.365Z,1.44
2019-01-12T17:09:33.900Z,1.41
2019-01-12T17:12:42.340Z,1.40
2019-01-12T17:15:50.894Z,1.40
2019-01-12T17:18:19.712Z,1.37
2019-01-12T17:20:48.412Z,1.36
2019-01-12T17:23:17.068Z,1.30
2019-01-12T17:26:25.527Z,1.26
2019-01-12T17:28:54.536Z,1.31
2019-01-12T17:31:23.520Z,1.27
2019-01-12T17:33:52.297Z,1.20
2019-01-12T17:36:20.969Z,1.16
2019-01-12T17:42:03.888Z,1.13
2019-01-12T17:44:32.611Z,1.04
2019-01-12T17:47:01.368Z,1.00
2019-01-12T17:49:30.035Z,0.99
2019-01-12T17:51:58.807Z,0.96
2019-01-12T17:54:27.460Z,0.92
2019-01-12T17:56:56.156Z,0.92
2019-01-12T17:59:24.823Z,0.88
2019-01-12T18:01:53.642Z,0.85
2019-01-12T18:04:22.340Z,0.80
2019-01-12T18:06:51.004Z,0.80
2019-01-12T18:09:19.767Z,0.86
2019-01-12T18:12:07.980Z,0.88
2019-01-12T18:14:37.162Z,0.87
2019-01-12T18:17:05.866Z,0.81
2019-01-12T18:20:14.339Z,0.86
2019-01-12T18:22:43.988Z,0.85
2019-01-12T18:25:52.432Z,0.77
2019-01-12T18:28:40.576Z,0.76
2019-01-12T18:31:09.386Z,0.74
2019-01-12T18:33:57.868Z,0.75
2019-01-12T18:36:26.579Z,0.71
2019-01-12T18:38:55.420Z,0.67
2019-01-12T18:41:24.107Z,0.63
2019-01-12T18:43:52.994Z,0.63
2019-01-12T18:46:21.756Z,0.65
2019-01-12T18:48:50.519Z,0.67
2019-01-12T18:51:19.196Z,0.62
2019-01-12T18:53:47.934Z,0.60
2019-01-12T18:56:36.305Z,0.63
2019-01-12T19:02:13.136Z,0.64
2019-01-12T19:04:41.981Z,0.56
2019-01-12T19:07:10.724Z,0.60
2019-01-12T19:09:39.499Z,0.60
2019-01-12T19:12:27.280Z,0.62
2019-01-12T19:14:55.973Z,0.63
2019-01-12T19:19:59.284Z,0.59
2019-01-12T19:22:28.013Z,0.62
2019-01-12T19:24:57.120Z,0.67
2019-01-12T19:27:25.779Z,0.67
2019-01-12T19:29:54.553Z,0.64
2019-01-12T19:32:23.220Z,0.64
2019-01-12T19:34:52.142Z,0.66
2019-01-12T19:40:33.834Z,0.63
2019-01-12T19:43:23.496Z,0.59
2019-01-12T19:45:52.154Z,0.62
2019-01-12T19:48:20.895Z,0.59
2019-01-12T19:51:08.756Z,0.62
2019-01-12T19:53:39.493Z,0.62
2019-01-12T19:59:23.807Z,0.54
2019-01-12T20:02:32.340Z,0.57
2019-01-12T20:05:23.094Z,0.61
2019-01-12T20:07:52.078Z,0.59
2019-01-12T20:13:15.438Z,0.58
2019-01-12T20:15:44.160Z,0.58
2019-01-12T20:18:32.235Z,0.60
2019-01-12T20:24:13.951Z,0.66
2019-01-12T20:26:42.681Z,0.60
2019-01-12T20:29:30.551Z,0.67
2019-01-12T20:32:20.043Z,0.66
2019-01-12T20:35:28.543Z,0.66
2019-01-12T20:38:35.772Z,0.65
2019-01-12T20:41:44.623Z,0.68
2019-01-12T20:44:53.029Z,0.68
2019-01-12T20:48:00.293Z,0.67
2019-01-12T20:51:09.001Z,0.67
2019-01-12T20:54:17.454Z,0.70
2019-01-12T20:57:24.653Z,0.67
2019-01-12T21:00:33.126Z,0.70
2019-01-12T21:03:40.382Z,0.72
2019-01-12T21:06:47.659Z,0.73
2019-01-12T21:15:39.420Z,0.74
2019-01-12T21:18:08.136Z,0.75
2019-01-12T21:20:56.106Z,0.68
2019-01-12T21:23:44.039Z,0.70
2019-01-12T21:26:32.030Z,0.74
2019-01-12T21:29:41.704Z,0.74
2019-01-12T21:32:29.636Z,0.74
2019-01-12T21:35:38.672Z,0.70
2019-01-12T21:38:26.667Z,0.67
2019-01-12T21:44:14.117Z,0.65
2019-01-12T21:47:03.370Z,0.67
2019-01-12T21:49:32.082Z,0.65
2019-01-12T21:52:00.901Z,0.65
2019-01-12T22:00:24.344Z,0.67
2019-01-12T22:03:12.246Z,0.67
2019-01-12T22:06:00.022Z,0.66
2019-01-12T22:08:47.986Z,0.68
2019-01-12T22:11:29.051Z,0.68
2019-01-12T22:14:16.859Z,0.70
2019-01-12T22:17:04.651Z,0.65
2019-01-12T22:19:52.547Z,0.67
2019-01-12T22:22:21.200Z,0.70
2019-01-12T22:25:09.441Z,0.69
2019-01-12T22:27:57.278Z,0.68
2019-01-12T22:30:45.237Z,0.69
2019-01-12T22:33:33.077Z,0.69
2019-01-12T22:39:14.786Z,0.66
2019-01-12T22:42:02.715Z,0.67
2019-01-12T22:44:50.622Z,0.66
2019-01-12T22:47:38.587Z,0.64
2019-01-12T22:50:47.009Z,0.63
2019-01-12T22:53:34.952Z,0.66
2019-01-12T22:56:03.616Z,0.69
2019-01-12T22:58:51.570Z,0.71
2019-01-12T23:02:00.008Z,0.70
2019-01-12T23:04:48.037Z,0.64
2019-01-12T23:07:35.943Z,0.71
2019-01-12T23:10:44.415Z,0.73
2019-01-12T23:13:32.234Z,0.75
2019-01-12T23:16:20.141Z,0.77
2019-01-12T23:19:07.968Z,0.78
2019-01-12T23:21:55.753Z,0.78
2019-01-12T23:24:24.456Z,0.80
2019-01-12T23:27:12.281Z,0.80
2019-01-12T23:30:04.453Z,0.75
2019-01-12T23:32:49.799Z,0.70
2019-01-12T23:35:18.493Z,0.67
2019-01-12T23:37:47.145Z,0.71
2019-01-12T23:40:55.918Z,0.66
2019-01-12T23:43:24.579Z,0.70
2019-01-12T23:46:33.081Z,0.69
2019-01-12T23:49:41.611Z,0.72
2019-01-12T23:52:10.276Z,0.68
2019-01-12T23:54:58.874Z,0.67
2019-01-12T23:57:46.830Z,0.70
